sensor_id;sensor_type;location;lat;lon;timestamp;temperature;humidity
8067;DHT22;4076;48.076;9.118;2023-10-19T00:00:14;8.60;99.90
8067;DHT22;4076;48.076;9.118;2023-10-19T00:02:48;8.60;99.90
8067;DHT22;4076;48.076;9.118;2023-10-19T00:05:14;8.60;99.90
8067;DHT22;4076;48.076;9.118;2023-10-19T00:07:41;8.60;99.90
8067;DHT22;4076;48.076;9.118;2023-10-19T00:10:07;8.60;99.90
8067;DHT22;4076;48.076;9.118;2023-10-19T00:12:32;8.60;99.90
8067;DHT22;4076;48.076;9.118;2023-10-19T00:14:58;8.60;99.90
8067;DHT22;4076;48.076;9.118;2023-10-19T00:17:25;8.60;99.90
8067;DHT22;4076;48.076;9.118;2023-10-19T00:19:54;8.60;99.90
8067;DHT22;4076;48.076;9.118;2023-10-19T00:22:52;8.70;99.90
8067;DHT22;4076;48.076;9.118;2023-10-19T00:25:18;8.70;99.90
8067;DHT22;4076;48.076;9.118;2023-10-19T00:27:44;8.70;99.90
8067;DHT22;4076;48.076;9.118;2023-10-19T00:30:13;8.70;99.90
8067;DHT22;4076;48.076;9.118;2023-10-19T00:32:43;8.60;99.90
8067;DHT22;4076;48.076;9.118;2023-10-19T00:35:09;8.60;99.90
8067;DHT22;4076;48.076;9.118;2023-10-19T00:37:54;8.60;99.90
8067;DHT22;4076;48.076;9.118;2023-10-19T00:40:22;8.60;99.90
8067;DHT22;4076;48.076;9.118;2023-10-19T00:43:03;8.60;99.90
8067;DHT22;4076;48.076;9.118;2023-10-19T00:45:33;8.60;99.90
8067;DHT22;4076;48.076;9.118;2023-10-19T00:48:08;8.60;99.90
8067;DHT22;4076;48.076;9.118;2023-10-19T00:50:36;8.60;99.90
8067;DHT22;4076;48.076;9.118;2023-10-19T00:53:02;8.60;99.90
8067;DHT22;4076;48.076;9.118;2023-10-19T00:55:33;8.60;99.90
8067;DHT22;4076;48.076;9.118;2023-10-19T00:58:00;8.50;99.90
8067;DHT22;4076;48.076;9.118;2023-10-19T01:00:30;8.60;99.90
8067;DHT22;4076;48.076;9.118;2023-10-19T01:02:57;8.50;99.90
8067;DHT22;4076;48.076;9.118;2023-10-19T01:05:28;8.50;99.90
8067;DHT22;4076;48.076;9.118;2023-10-19T01:08:03;8.60;99.90
8067;DHT22;4076;48.076;9.118;2023-10-19T01:10:40;8.60;99.90
8067;DHT22;4076;48.076;9.118;2023-10-19T01:13:05;8.60;99.90
8067;DHT22;4076;48.076;9.118;2023-10-19T01:15:32;8.60;99.90
8067;DHT22;4076;48.076;9.118;2023-10-19T01:18:02;8.60;99.90
8067;DHT22;4076;48.076;9.118;2023-10-19T01:20:30;8.70;99.90
8067;DHT22;4076;48.076;9.118;2023-10-19T01:23:01;8.70;99.90
8067;DHT22;4076;48.076;9.118;2023-10-19T01:25:54;8.60;99.90
8067;DHT22;4076;48.076;9.118;2023-10-19T01:28:27;8.60;99.90
8067;DHT22;4076;48.076;9.118;2023-10-19T01:31:19;8.60;99.90
8067;DHT22;4076;48.076;9.118;2023-10-19T01:34:00;8.60;99.90
8067;DHT22;4076;48.076;9.118;2023-10-19T01:36:32;8.50;99.90
8067;DHT22;4076;48.076;9.118;2023-10-19T01:39:07;8.60;99.90
8067;DHT22;4076;48.076;9.118;2023-10-19T01:41:37;8.60;99.90
8067;DHT22;4076;48.076;9.118;2023-10-19T01:44:05;8.50;99.90
8067;DHT22;4076;48.076;9.118;2023-10-19T01:46:32;8.50;99.90
8067;DHT22;4076;48.076;9.118;2023-10-19T01:49:03;8.50;99.90
8067;DHT22;4076;48.076;9.118;2023-10-19T01:51:31;8.50;99.90
8067;DHT22;4076;48.076;9.118;2023-10-19T01:54:09;8.50;99.90
8067;DHT22;4076;48.076;9.118;2023-10-19T01:56:35;8.40;99.90
8067;DHT22;4076;48.076;9.118;2023-10-19T01:59:04;8.40;99.90
8067;DHT22;4076;48.076;9.118;2023-10-19T02:01:30;8.40;99.90
8067;DHT22;4076;48.076;9.118;2023-10-19T02:04:03;8.40;99.90
8067;DHT22;4076;48.076;9.118;2023-10-19T02:06:32;8.30;99.90
8067;DHT22;4076;48.076;9.118;2023-10-19T02:09:10;8.20;99.90
8067;DHT22;4076;48.076;9.118;2023-10-19T02:11:55;8.20;99.90
8067;DHT22;4076;48.076;9.118;2023-10-19T02:14:23;8.10;99.90
8067;DHT22;4076;48.076;9.118;2023-10-19T02:16:52;8.10;99.90
8067;DHT22;4076;48.076;9.118;2023-10-19T02:19:22;8.10;99.90
8067;DHT22;4076;48.076;9.118;2023-10-19T02:21:57;8.10;99.90
8067;DHT22;4076;48.076;9.118;2023-10-19T02:24:23;8.10;99.90
8067;DHT22;4076;48.076;9.118;2023-10-19T02:26:54;8.10;99.90
8067;DHT22;4076;48.076;9.118;2023-10-19T02:29:21;8.00;99.90
8067;DHT22;4076;48.076;9.118;2023-10-19T02:31:51;8.00;99.90
8067;DHT22;4076;48.076;9.118;2023-10-19T02:34:18;8.00;99.90
8067;DHT22;4076;48.076;9.118;2023-10-19T02:36:45;8.00;99.90
8067;DHT22;4076;48.076;9.118;2023-10-19T02:39:12;8.30;99.90
8067;DHT22;4076;48.076;9.118;2023-10-19T02:41:40;8.00;99.90
8067;DHT22;4076;48.076;9.118;2023-10-19T02:44:11;8.00;99.90
8067;DHT22;4076;48.076;9.118;2023-10-19T02:46:50;8.00;99.90
8067;DHT22;4076;48.076;9.118;2023-10-19T02:49:18;8.10;99.90
8067;DHT22;4076;48.076;9.118;2023-10-19T02:51:46;8.10;99.90
8067;DHT22;4076;48.076;9.118;2023-10-19T02:54:13;8.10;99.90
8067;DHT22;4076;48.076;9.118;2023-10-19T02:56:44;8.20;99.90
8067;DHT22;4076;48.076;9.118;2023-10-19T02:59:13;8.20;99.90
8067;DHT22;4076;48.076;9.118;2023-10-19T03:01:42;8.20;99.90
8067;DHT22;4076;48.076;9.118;2023-10-19T03:04:10;8.20;99.90
8067;DHT22;4076;48.076;9.118;2023-10-19T03:06:38;8.10;99.90
8067;DHT22;4076;48.076;9.118;2023-10-19T03:09:05;8.10;99.90
8067;DHT22;4076;48.076;9.118;2023-10-19T03:11:50;8.20;99.90
8067;DHT22;4076;48.076;9.118;2023-10-19T03:14:20;8.10;99.90
8067;DHT22;4076;48.076;9.118;2023-10-19T03:16:50;8.20;99.90
8067;DHT22;4076;48.076;9.118;2023-10-19T03:19:16;8.20;99.90
8067;DHT22;4076;48.076;9.118;2023-10-19T03:21:41;8.30;99.90
8067;DHT22;4076;48.076;9.118;2023-10-19T03:24:11;8.30;99.90
8067;DHT22;4076;48.076;9.118;2023-10-19T03:27:02;8.30;99.90
8067;DHT22;4076;48.076;9.118;2023-10-19T03:29:34;8.30;99.90
8067;DHT22;4076;48.076;9.118;2023-10-19T03:32:06;8.30;99.90
8067;DHT22;4076;48.076;9.118;2023-10-19T03:34:33;8.30;99.90
8067;DHT22;4076;48.076;9.118;2023-10-19T03:36:59;8.30;99.90
8067;DHT22;4076;48.076;9.118;2023-10-19T03:39:33;8.30;99.90
8067;DHT22;4076;48.076;9.118;2023-10-19T03:41:59;8.30;99.90
8067;DHT22;4076;48.076;9.118;2023-10-19T03:44:26;8.40;99.90
8067;DHT22;4076;48.076;9.118;2023-10-19T03:46:52;8.30;99.90
8067;DHT22;4076;48.076;9.118;2023-10-19T03:49:30;8.30;99.90
8067;DHT22;4076;48.076;9.118;2023-10-19T03:52:04;8.30;99.90
8067;DHT22;4076;48.076;9.118;2023-10-19T03:54:37;8.30;99.90
8067;DHT22;4076;48.076;9.118;2023-10-19T03:57:07;8.30;99.90
8067;DHT22;4076;48.076;9.118;2023-10-19T03:59:42;8.30;99.90
8067;DHT22;4076;48.076;9.118;2023-10-19T04:02:08;8.20;99.90
8067;DHT22;4076;48.076;9.118;2023-10-19T04:04:43;8.30;99.90
8067;DHT22;4076;48.076;9.118;2023-10-19T04:07:12;8.20;99.90
8067;DHT22;4076;48.076;9.118;2023-10-19T04:09:56;8.20;99.90
8067;DHT22;4076;48.076;9.118;2023-10-19T04:12:30;8.20;99.90
8067;DHT22;4076;48.076;9.118;2023-10-19T04:14:57;8.20;99.90
8067;DHT22;4076;48.076;9.118;2023-10-19T04:17:23;8.20;99.90
8067;DHT22;4076;48.076;9.118;2023-10-19T04:19:49;8.20;99.90
8067;DHT22;4076;48.076;9.118;2023-10-19T04:22:17;8.20;99.90
8067;DHT22;4076;48.076;9.118;2023-10-19T04:24:52;8.20;99.90
8067;DHT22;4076;48.076;9.118;2023-10-19T04:27:18;8.10;99.90
8067;DHT22;4076;48.076;9.118;2023-10-19T04:29:47;8.10;99.90
8067;DHT22;4076;48.076;9.118;2023-10-19T04:32:15;8.10;99.90
8067;DHT22;4076;48.076;9.118;2023-10-19T04:34:48;8.10;99.90
8067;DHT22;4076;48.076;9.118;2023-10-19T04:37:14;8.10;99.90
8067;DHT22;4076;48.076;9.118;2023-10-19T04:39:44;8.10;99.90
8067;DHT22;4076;48.076;9.118;2023-10-19T04:42:09;8.00;99.90
8067;DHT22;4076;48.076;9.118;2023-10-19T04:44:35;8.00;99.90
8067;DHT22;4076;48.076;9.118;2023-10-19T04:47:00;8.00;99.90
8067;DHT22;4076;48.076;9.118;2023-10-19T04:49:26;8.00;99.90
8067;DHT22;4076;48.076;9.118;2023-10-19T04:51:53;8.10;99.90
8067;DHT22;4076;48.076;9.118;2023-10-19T04:54:19;8.10;99.90
8067;DHT22;4076;48.076;9.118;2023-10-19T04:56:44;8.10;99.90
8067;DHT22;4076;48.076;9.118;2023-10-19T04:59:10;8.10;99.90
8067;DHT22;4076;48.076;9.118;2023-10-19T05:01:36;8.10;99.90
8067;DHT22;4076;48.076;9.118;2023-10-19T05:04:02;8.20;99.90
8067;DHT22;4076;48.076;9.118;2023-10-19T05:06:28;8.20;99.90
8067;DHT22;4076;48.076;9.118;2023-10-19T05:08:54;8.20;99.90
8067;DHT22;4076;48.076;9.118;2023-10-19T05:11:20;8.20;99.90
8067;DHT22;4076;48.076;9.118;2023-10-19T05:13:45;8.20;99.90
8067;DHT22;4076;48.076;9.118;2023-10-19T05:16:11;8.30;99.90
8067;DHT22;4076;48.076;9.118;2023-10-19T05:18:37;8.20;99.90
8067;DHT22;4076;48.076;9.118;2023-10-19T05:21:02;8.20;99.90
8067;DHT22;4076;48.076;9.118;2023-10-19T05:23:28;8.20;99.90
8067;DHT22;4076;48.076;9.118;2023-10-19T05:26:00;8.20;99.90
8067;DHT22;4076;48.076;9.118;2023-10-19T05:28:27;8.20;99.90
8067;DHT22;4076;48.076;9.118;2023-10-19T05:30:53;8.20;99.90
8067;DHT22;4076;48.076;9.118;2023-10-19T05:33:20;8.20;99.90
8067;DHT22;4076;48.076;9.118;2023-10-19T05:35:50;8.20;99.90
8067;DHT22;4076;48.076;9.118;2023-10-19T05:38:16;8.20;99.90
8067;DHT22;4076;48.076;9.118;2023-10-19T05:40:42;8.30;99.90
8067;DHT22;4076;48.076;9.118;2023-10-19T05:43:08;8.30;99.90
8067;DHT22;4076;48.076;9.118;2023-10-19T05:45:35;8.20;99.90
8067;DHT22;4076;48.076;9.118;2023-10-19T05:48:02;8.20;99.90
8067;DHT22;4076;48.076;9.118;2023-10-19T05:50:34;8.20;99.90
8067;DHT22;4076;48.076;9.118;2023-10-19T05:53:01;8.30;99.90
8067;DHT22;4076;48.076;9.118;2023-10-19T05:55:27;8.30;99.90
8067;DHT22;4076;48.076;9.118;2023-10-19T05:57:52;8.30;99.90
8067;DHT22;4076;48.076;9.118;2023-10-19T06:00:18;8.30;99.90
8067;DHT22;4076;48.076;9.118;2023-10-19T06:02:48;8.40;99.90
8067;DHT22;4076;48.076;9.118;2023-10-19T06:05:17;8.40;99.90
8067;DHT22;4076;48.076;9.118;2023-10-19T06:07:45;8.40;99.90
8067;DHT22;4076;48.076;9.118;2023-10-19T06:10:12;8.50;99.90
8067;DHT22;4076;48.076;9.118;2023-10-19T06:12:42;8.50;99.90
8067;DHT22;4076;48.076;9.118;2023-10-19T06:15:09;8.50;99.90
8067;DHT22;4076;48.076;9.118;2023-10-19T06:17:39;8.60;99.90
8067;DHT22;4076;48.076;9.118;2023-10-19T06:20:07;8.70;99.90
8067;DHT22;4076;48.076;9.118;2023-10-19T06:22:35;8.70;99.90
8067;DHT22;4076;48.076;9.118;2023-10-19T06:25:01;8.70;99.90
8067;DHT22;4076;48.076;9.118;2023-10-19T06:27:28;8.80;99.90
8067;DHT22;4076;48.076;9.118;2023-10-19T06:29:55;8.80;99.90
8067;DHT22;4076;48.076;9.118;2023-10-19T06:32:20;8.80;99.90
8067;DHT22;4076;48.076;9.118;2023-10-19T06:34:46;8.80;99.90
8067;DHT22;4076;48.076;9.118;2023-10-19T06:37:12;8.90;99.90
8067;DHT22;4076;48.076;9.118;2023-10-19T06:39:37;8.90;99.90
8067;DHT22;4076;48.076;9.118;2023-10-19T06:42:09;8.90;99.90
8067;DHT22;4076;48.076;9.118;2023-10-19T06:44:40;8.90;99.90
8067;DHT22;4076;48.076;9.118;2023-10-19T06:47:07;8.90;99.90
8067;DHT22;4076;48.076;9.118;2023-10-19T06:49:32;9.00;99.90
8067;DHT22;4076;48.076;9.118;2023-10-19T06:51:59;9.00;99.90
8067;DHT22;4076;48.076;9.118;2023-10-19T06:54:25;9.00;99.90
8067;DHT22;4076;48.076;9.118;2023-10-19T06:56:53;9.00;99.90
8067;DHT22;4076;48.076;9.118;2023-10-19T06:59:18;9.00;99.90
8067;DHT22;4076;48.076;9.118;2023-10-19T07:01:44;9.00;99.90
8067;DHT22;4076;48.076;9.118;2023-10-19T07:04:09;9.10;99.90
8067;DHT22;4076;48.076;9.118;2023-10-19T07:06:35;9.10;99.90
8067;DHT22;4076;48.076;9.118;2023-10-19T07:09:01;9.20;99.90
8067;DHT22;4076;48.076;9.118;2023-10-19T07:11:29;9.20;99.90
8067;DHT22;4076;48.076;9.118;2023-10-19T07:13:54;9.20;99.90
8067;DHT22;4076;48.076;9.118;2023-10-19T07:16:20;9.20;99.90
8067;DHT22;4076;48.076;9.118;2023-10-19T07:18:46;9.30;99.90
8067;DHT22;4076;48.076;9.118;2023-10-19T07:21:12;9.30;99.90
8067;DHT22;4076;48.076;9.118;2023-10-19T07:23:38;9.30;99.90
8067;DHT22;4076;48.076;9.118;2023-10-19T07:26:03;9.40;99.90
8067;DHT22;4076;48.076;9.118;2023-10-19T07:28:29;9.30;99.90
8067;DHT22;4076;48.076;9.118;2023-10-19T07:30:57;9.30;99.90
8067;DHT22;4076;48.076;9.118;2023-10-19T07:33:23;9.30;99.90
8067;DHT22;4076;48.076;9.118;2023-10-19T07:35:50;9.30;99.90
8067;DHT22;4076;48.076;9.118;2023-10-19T07:38:21;9.30;99.90
8067;DHT22;4076;48.076;9.118;2023-10-19T07:40:48;9.30;99.90
8067;DHT22;4076;48.076;9.118;2023-10-19T07:43:14;9.40;99.90
8067;DHT22;4076;48.076;9.118;2023-10-19T07:45:39;9.40;99.90
8067;DHT22;4076;48.076;9.118;2023-10-19T07:48:06;9.40;99.90
8067;DHT22;4076;48.076;9.118;2023-10-19T07:50:35;9.50;99.90
8067;DHT22;4076;48.076;9.118;2023-10-19T07:53:02;9.50;99.90
8067;DHT22;4076;48.076;9.118;2023-10-19T07:55:29;9.50;99.90
8067;DHT22;4076;48.076;9.118;2023-10-19T07:57:57;9.60;99.90
8067;DHT22;4076;48.076;9.118;2023-10-19T08:00:25;9.60;99.90
8067;DHT22;4076;48.076;9.118;2023-10-19T08:02:52;9.70;99.90
8067;DHT22;4076;48.076;9.118;2023-10-19T08:05:19;9.80;99.90
8067;DHT22;4076;48.076;9.118;2023-10-19T08:07:46;9.80;99.90
8067;DHT22;4076;48.076;9.118;2023-10-19T08:10:13;9.80;99.90
8067;DHT22;4076;48.076;9.118;2023-10-19T08:12:42;9.90;99.90
8067;DHT22;4076;48.076;9.118;2023-10-19T08:15:09;10.00;99.90
8067;DHT22;4076;48.076;9.118;2023-10-19T08:17:39;10.00;99.90
8067;DHT22;4076;48.076;9.118;2023-10-19T08:20:10;10.10;99.90
8067;DHT22;4076;48.076;9.118;2023-10-19T08:22:42;10.20;99.90
8067;DHT22;4076;48.076;9.118;2023-10-19T08:25:08;10.30;99.90
8067;DHT22;4076;48.076;9.118;2023-10-19T08:27:41;10.40;99.90
8067;DHT22;4076;48.076;9.118;2023-10-19T08:30:10;10.40;99.90
8067;DHT22;4076;48.076;9.118;2023-10-19T08:32:36;10.50;99.90
8067;DHT22;4076;48.076;9.118;2023-10-19T08:35:02;10.60;99.90
8067;DHT22;4076;48.076;9.118;2023-10-19T08:37:29;10.70;99.90
8067;DHT22;4076;48.076;9.118;2023-10-19T08:39:54;10.80;99.90
8067;DHT22;4076;48.076;9.118;2023-10-19T08:42:20;10.90;99.90
8067;DHT22;4076;48.076;9.118;2023-10-19T08:44:46;11.00;99.90
8067;DHT22;4076;48.076;9.118;2023-10-19T08:47:12;11.00;99.90
8067;DHT22;4076;48.076;9.118;2023-10-19T08:49:37;11.00;99.90
8067;DHT22;4076;48.076;9.118;2023-10-19T08:52:03;10.80;99.90
8067;DHT22;4076;48.076;9.118;2023-10-19T08:54:31;10.90;99.90
8067;DHT22;4076;48.076;9.118;2023-10-19T08:56:59;10.80;99.90
8067;DHT22;4076;48.076;9.118;2023-10-19T08:59:25;10.80;99.90
8067;DHT22;4076;48.076;9.118;2023-10-19T09:02:03;10.80;99.90
8067;DHT22;4076;48.076;9.118;2023-10-19T09:04:29;10.70;99.90
8067;DHT22;4076;48.076;9.118;2023-10-19T09:06:55;10.80;99.90
8067;DHT22;4076;48.076;9.118;2023-10-19T09:09:21;10.80;99.90
8067;DHT22;4076;48.076;9.118;2023-10-19T09:11:51;10.90;99.90
8067;DHT22;4076;48.076;9.118;2023-10-19T09:14:32;10.90;99.90
8067;DHT22;4076;48.076;9.118;2023-10-19T09:17:09;10.90;99.90
8067;DHT22;4076;48.076;9.118;2023-10-19T09:22:02;11.10;99.90
8067;DHT22;4076;48.076;9.118;2023-10-19T09:24:36;11.30;99.90
8067;DHT22;4076;48.076;9.118;2023-10-19T09:27:03;11.50;99.90
8067;DHT22;4076;48.076;9.118;2023-10-19T09:29:29;11.70;99.90
8067;DHT22;4076;48.076;9.118;2023-10-19T09:31:58;11.90;99.90
8067;DHT22;4076;48.076;9.118;2023-10-19T09:34:28;12.00;99.90
8067;DHT22;4076;48.076;9.118;2023-10-19T09:37:01;12.20;99.90
8067;DHT22;4076;48.076;9.118;2023-10-19T09:39:28;12.20;99.90
8067;DHT22;4076;48.076;9.118;2023-10-19T09:42:01;12.30;99.90
8067;DHT22;4076;48.076;9.118;2023-10-19T09:44:39;12.30;99.90
8067;DHT22;4076;48.076;9.118;2023-10-19T09:47:13;12.30;99.90
8067;DHT22;4076;48.076;9.118;2023-10-19T09:49:41;12.40;99.90
8067;DHT22;4076;48.076;9.118;2023-10-19T09:52:08;12.40;99.90
8067;DHT22;4076;48.076;9.118;2023-10-19T09:54:48;12.40;99.90
8067;DHT22;4076;48.076;9.118;2023-10-19T09:57:21;12.40;99.90
8067;DHT22;4076;48.076;9.118;2023-10-19T09:59:53;12.50;99.90
8067;DHT22;4076;48.076;9.118;2023-10-19T10:02:21;12.50;99.90
8067;DHT22;4076;48.076;9.118;2023-10-19T10:04:48;12.50;99.90
8067;DHT22;4076;48.076;9.118;2023-10-19T10:07:14;12.50;99.90
8067;DHT22;4076;48.076;9.118;2023-10-19T10:09:43;12.60;99.90
8067;DHT22;4076;48.076;9.118;2023-10-19T10:12:20;12.50;99.90
8067;DHT22;4076;48.076;9.118;2023-10-19T10:14:56;12.60;99.90
8067;DHT22;4076;48.076;9.118;2023-10-19T10:17:24;12.60;99.90
8067;DHT22;4076;48.076;9.118;2023-10-19T10:19:53;12.70;99.90
8067;DHT22;4076;48.076;9.118;2023-10-19T10:22:21;12.70;99.90
8067;DHT22;4076;48.076;9.118;2023-10-19T10:24:47;12.70;99.90
8067;DHT22;4076;48.076;9.118;2023-10-19T10:27:18;12.70;99.90
8067;DHT22;4076;48.076;9.118;2023-10-19T10:29:58;12.70;99.90
8067;DHT22;4076;48.076;9.118;2023-10-19T10:32:46;12.60;99.90
8067;DHT22;4076;48.076;9.118;2023-10-19T10:38:13;12.50;99.90
8067;DHT22;4076;48.076;9.118;2023-10-19T10:40:43;12.50;99.90
8067;DHT22;4076;48.076;9.118;2023-10-19T10:43:08;12.70;99.90
8067;DHT22;4076;48.076;9.118;2023-10-19T10:45:36;12.90;99.90
8067;DHT22;4076;48.076;9.118;2023-10-19T10:48:01;13.10;99.90
8067;DHT22;4076;48.076;9.118;2023-10-19T10:50:27;13.20;99.90
8067;DHT22;4076;48.076;9.118;2023-10-19T10:52:53;13.50;99.90
8067;DHT22;4076;48.076;9.118;2023-10-19T10:55:23;13.60;99.90
8067;DHT22;4076;48.076;9.118;2023-10-19T10:57:49;13.70;99.90
8067;DHT22;4076;48.076;9.118;2023-10-19T11:00:15;13.90;99.90
8067;DHT22;4076;48.076;9.118;2023-10-19T11:02:42;14.10;99.90
8067;DHT22;4076;48.076;9.118;2023-10-19T11:05:12;14.40;99.90
8067;DHT22;4076;48.076;9.118;2023-10-19T11:07:39;14.60;99.90
8067;DHT22;4076;48.076;9.118;2023-10-19T11:10:05;14.90;99.90
8067;DHT22;4076;48.076;9.118;2023-10-19T11:12:32;15.00;99.90
8067;DHT22;4076;48.076;9.118;2023-10-19T11:14:59;15.10;99.90
8067;DHT22;4076;48.076;9.118;2023-10-19T11:17:28;15.20;99.90
8067;DHT22;4076;48.076;9.118;2023-10-19T11:19:58;15.20;99.90
8067;DHT22;4076;48.076;9.118;2023-10-19T11:22:26;15.40;99.90
8067;DHT22;4076;48.076;9.118;2023-10-19T11:24:55;15.50;99.90
8067;DHT22;4076;48.076;9.118;2023-10-19T11:27:28;15.70;99.90
8067;DHT22;4076;48.076;9.118;2023-10-19T11:30:00;15.90;99.90
8067;DHT22;4076;48.076;9.118;2023-10-19T11:32:36;16.40;99.90
8067;DHT22;4076;48.076;9.118;2023-10-19T11:35:03;17.40;99.90
8067;DHT22;4076;48.076;9.118;2023-10-19T11:37:29;17.90;99.90
8067;DHT22;4076;48.076;9.118;2023-10-19T11:39:55;18.30;99.90
8067;DHT22;4076;48.076;9.118;2023-10-19T11:42:20;18.60;99.90
8067;DHT22;4076;48.076;9.118;2023-10-19T11:44:46;18.90;99.90
8067;DHT22;4076;48.076;9.118;2023-10-19T11:47:12;19.00;99.90
8067;DHT22;4076;48.076;9.118;2023-10-19T11:49:39;18.90;99.90
8067;DHT22;4076;48.076;9.118;2023-10-19T11:52:07;18.50;99.90
8067;DHT22;4076;48.076;9.118;2023-10-19T11:54:34;18.20;99.90
8067;DHT22;4076;48.076;9.118;2023-10-19T11:56:59;18.00;99.90
8067;DHT22;4076;48.076;9.118;2023-10-19T11:59:25;18.10;99.90
8067;DHT22;4076;48.076;9.118;2023-10-19T12:01:51;18.30;99.90
8067;DHT22;4076;48.076;9.118;2023-10-19T12:04:17;18.50;99.90
8067;DHT22;4076;48.076;9.118;2023-10-19T12:06:43;18.70;99.90
8067;DHT22;4076;48.076;9.118;2023-10-19T12:09:09;18.70;99.90
8067;DHT22;4076;48.076;9.118;2023-10-19T12:11:41;18.40;99.90
8067;DHT22;4076;48.076;9.118;2023-10-19T12:14:07;18.20;99.90
8067;DHT22;4076;48.076;9.118;2023-10-19T12:16:37;18.10;99.90
8067;DHT22;4076;48.076;9.118;2023-10-19T12:19:04;17.90;99.90
8067;DHT22;4076;48.076;9.118;2023-10-19T12:21:30;17.70;99.90
8067;DHT22;4076;48.076;9.118;2023-10-19T12:23:56;17.50;99.90
8067;DHT22;4076;48.076;9.118;2023-10-19T12:26:23;17.30;99.90
8067;DHT22;4076;48.076;9.118;2023-10-19T12:28:49;17.20;99.90
8067;DHT22;4076;48.076;9.118;2023-10-19T12:31:15;17.10;99.90
8067;DHT22;4076;48.076;9.118;2023-10-19T12:33:44;16.90;99.90
8067;DHT22;4076;48.076;9.118;2023-10-19T12:36:10;16.80;99.90
8067;DHT22;4076;48.076;9.118;2023-10-19T12:38:54;16.70;99.90
8067;DHT22;4076;48.076;9.118;2023-10-19T12:41:21;16.60;99.90
8067;DHT22;4076;48.076;9.118;2023-10-19T12:43:47;16.50;99.90
8067;DHT22;4076;48.076;9.118;2023-10-19T12:46:15;16.40;99.90
8067;DHT22;4076;48.076;9.118;2023-10-19T12:48:42;16.40;99.90
8067;DHT22;4076;48.076;9.118;2023-10-19T12:51:08;16.40;99.90
8067;DHT22;4076;48.076;9.118;2023-10-19T12:53:37;16.50;99.90
8067;DHT22;4076;48.076;9.118;2023-10-19T12:56:04;16.50;99.90
8067;DHT22;4076;48.076;9.118;2023-10-19T12:58:31;16.60;99.90
8067;DHT22;4076;48.076;9.118;2023-10-19T13:00:57;16.80;99.90
8067;DHT22;4076;48.076;9.118;2023-10-19T13:03:24;16.80;99.90
8067;DHT22;4076;48.076;9.118;2023-10-19T13:05:52;16.90;99.90
8067;DHT22;4076;48.076;9.118;2023-10-19T13:08:19;16.80;99.90
8067;DHT22;4076;48.076;9.118;2023-10-19T13:10:47;16.90;99.90
8067;DHT22;4076;48.076;9.118;2023-10-19T13:13:13;16.70;99.90
8067;DHT22;4076;48.076;9.118;2023-10-19T13:15:44;16.60;99.90
8067;DHT22;4076;48.076;9.118;2023-10-19T13:18:11;16.60;99.90
8067;DHT22;4076;48.076;9.118;2023-10-19T13:20:39;16.50;99.90
8067;DHT22;4076;48.076;9.118;2023-10-19T13:23:07;16.50;99.90
8067;DHT22;4076;48.076;9.118;2023-10-19T13:25:37;16.50;99.90
8067;DHT22;4076;48.076;9.118;2023-10-19T13:28:26;16.50;99.90
8067;DHT22;4076;48.076;9.118;2023-10-19T13:30:53;16.50;99.90
8067;DHT22;4076;48.076;9.118;2023-10-19T13:33:20;16.50;99.90
8067;DHT22;4076;48.076;9.118;2023-10-19T13:35:52;16.50;99.90
8067;DHT22;4076;48.076;9.118;2023-10-19T13:38:18;16.50;99.90
8067;DHT22;4076;48.076;9.118;2023-10-19T13:40:47;16.40;99.90
8067;DHT22;4076;48.076;9.118;2023-10-19T13:43:13;16.40;99.90
8067;DHT22;4076;48.076;9.118;2023-10-19T13:45:39;16.40;99.90
8067;DHT22;4076;48.076;9.118;2023-10-19T13:48:07;16.30;99.90
8067;DHT22;4076;48.076;9.118;2023-10-19T13:50:34;16.30;99.90
8067;DHT22;4076;48.076;9.118;2023-10-19T13:53:01;16.20;99.90
8067;DHT22;4076;48.076;9.118;2023-10-19T13:55:28;16.10;99.90
8067;DHT22;4076;48.076;9.118;2023-10-19T13:57:54;16.00;99.90
8067;DHT22;4076;48.076;9.118;2023-10-19T14:00:21;16.00;99.90
8067;DHT22;4076;48.076;9.118;2023-10-19T14:02:56;16.00;99.90
8067;DHT22;4076;48.076;9.118;2023-10-19T14:05:23;16.00;99.90
8067;DHT22;4076;48.076;9.118;2023-10-19T14:07:50;15.90;99.90
8067;DHT22;4076;48.076;9.118;2023-10-19T14:10:17;15.80;99.90
8067;DHT22;4076;48.076;9.118;2023-10-19T14:12:45;15.70;99.90
8067;DHT22;4076;48.076;9.118;2023-10-19T14:15:13;15.60;99.90
8067;DHT22;4076;48.076;9.118;2023-10-19T14:17:39;15.60;99.90
8067;DHT22;4076;48.076;9.118;2023-10-19T14:20:05;15.60;99.90
8067;DHT22;4076;48.076;9.118;2023-10-19T14:22:31;15.60;99.90
8067;DHT22;4076;48.076;9.118;2023-10-19T14:25:00;15.70;99.90
8067;DHT22;4076;48.076;9.118;2023-10-19T14:27:26;15.70;99.90
8067;DHT22;4076;48.076;9.118;2023-10-19T14:29:52;15.70;99.90
8067;DHT22;4076;48.076;9.118;2023-10-19T14:32:17;15.60;99.90
8067;DHT22;4076;48.076;9.118;2023-10-19T14:34:43;15.70;99.90
8067;DHT22;4076;48.076;9.118;2023-10-19T14:37:08;15.70;99.90
8067;DHT22;4076;48.076;9.118;2023-10-19T14:39:34;15.80;99.90
8067;DHT22;4076;48.076;9.118;2023-10-19T14:42:00;15.90;99.90
8067;DHT22;4076;48.076;9.118;2023-10-19T14:44:26;16.00;99.90
8067;DHT22;4076;48.076;9.118;2023-10-19T14:46:53;16.10;99.90
8067;DHT22;4076;48.076;9.118;2023-10-19T14:49:18;16.10;99.90
8067;DHT22;4076;48.076;9.118;2023-10-19T14:51:44;16.20;99.90
8067;DHT22;4076;48.076;9.118;2023-10-19T14:54:09;16.20;99.90
8067;DHT22;4076;48.076;9.118;2023-10-19T14:56:36;16.00;99.90
8067;DHT22;4076;48.076;9.118;2023-10-19T14:59:02;16.00;99.90
8067;DHT22;4076;48.076;9.118;2023-10-19T15:01:30;16.00;99.90
8067;DHT22;4076;48.076;9.118;2023-10-19T15:03:56;15.90;99.90
8067;DHT22;4076;48.076;9.118;2023-10-19T15:06:21;15.90;99.90
8067;DHT22;4076;48.076;9.118;2023-10-19T15:08:47;15.90;99.90
8067;DHT22;4076;48.076;9.118;2023-10-19T15:11:19;15.90;99.90
8067;DHT22;4076;48.076;9.118;2023-10-19T15:13:47;15.90;99.90
8067;DHT22;4076;48.076;9.118;2023-10-19T15:16:13;15.90;99.90
8067;DHT22;4076;48.076;9.118;2023-10-19T15:18:39;15.90;99.90
8067;DHT22;4076;48.076;9.118;2023-10-19T15:21:08;15.80;99.90
8067;DHT22;4076;48.076;9.118;2023-10-19T15:23:34;15.80;99.90
8067;DHT22;4076;48.076;9.118;2023-10-19T15:26:00;15.70;99.90
8067;DHT22;4076;48.076;9.118;2023-10-19T15:28:27;15.60;99.90
8067;DHT22;4076;48.076;9.118;2023-10-19T15:30:58;15.60;99.90
8067;DHT22;4076;48.076;9.118;2023-10-19T15:33:24;15.50;99.90
8067;DHT22;4076;48.076;9.118;2023-10-19T15:35:51;15.50;99.90
8067;DHT22;4076;48.076;9.118;2023-10-19T15:38:16;15.40;99.90
8067;DHT22;4076;48.076;9.118;2023-10-19T15:40:42;15.40;99.90
8067;DHT22;4076;48.076;9.118;2023-10-19T15:43:07;15.20;99.90
8067;DHT22;4076;48.076;9.118;2023-10-19T15:45:33;15.20;99.90
8067;DHT22;4076;48.076;9.118;2023-10-19T15:48:03;15.10;99.90
8067;DHT22;4076;48.076;9.118;2023-10-19T15:50:29;15.00;99.90
8067;DHT22;4076;48.076;9.118;2023-10-19T15:52:55;15.00;99.90
8067;DHT22;4076;48.076;9.118;2023-10-19T15:55:21;15.00;99.90
8067;DHT22;4076;48.076;9.118;2023-10-19T15:57:50;14.90;99.90
8067;DHT22;4076;48.076;9.118;2023-10-19T16:00:16;14.90;99.90
8067;DHT22;4076;48.076;9.118;2023-10-19T16:02:43;14.90;99.90
8067;DHT22;4076;48.076;9.118;2023-10-19T16:05:10;14.80;99.90
8067;DHT22;4076;48.076;9.118;2023-10-19T16:07:36;14.90;99.90
8067;DHT22;4076;48.076;9.118;2023-10-19T16:10:06;14.80;99.90
8067;DHT22;4076;48.076;9.118;2023-10-19T16:12:34;14.70;99.90
8067;DHT22;4076;48.076;9.118;2023-10-19T16:14:59;14.70;99.90
8067;DHT22;4076;48.076;9.118;2023-10-19T16:17:25;14.70;99.90
8067;DHT22;4076;48.076;9.118;2023-10-19T16:19:52;14.60;99.90
8067;DHT22;4076;48.076;9.118;2023-10-19T16:22:18;14.60;99.90